Time;durP1;ratioP1;P1;durP2;ratioP2;P2;SDS_P1;SDS_P2;PMS_P1;PMS_P2;Temp;Humidity;BMP_temperature;BMP_pressure;BME280_temperature;BME280_humidity;BME280_pressure;Samples;Min_cycle;Max_cycle;Signal;HPM_P1;HPM_P2
2021/06/30 00:02:20;;;;;;;6.00;4.82;;;15.40;99.90;;;;;;5078669;28;20196;-72
2021/06/30 00:04:47;;;;;;;5.07;4.68;;;15.30;99.90;;;;;;5088616;28;20831;-71
2021/06/30 00:07:14;;;;;;;5.20;4.78;;;15.50;99.90;;;;;;5089088;28;20662;-71
2021/06/30 00:09:41;;;;;;;5.18;4.50;;;15.60;99.90;;;;;;5089267;28;20200;-71
2021/06/30 00:12:08;;;;;;;5.95;4.90;;;15.70;99.90;;;;;;5081112;28;20288;-71
2021/06/30 00:14:36;;;;;;;6.50;4.60;;;15.80;99.90;;;;;;5068714;28;20279;-71
2021/06/30 00:17:04;;;;;;;5.63;5.22;;;15.80;99.90;;;;;;5068474;28;20771;-71
2021/06/30 00:19:31;;;;;;;5.15;4.75;;;15.80;99.90;;;;;;5084829;28;20327;-71
2021/06/30 00:21:58;;;;;;;4.85;4.40;;;15.80;99.90;;;;;;5089418;28;20193;-71
2021/06/30 00:24:25;;;;;;;5.32;4.82;;;15.80;99.90;;;;;;5089040;28;20627;-71
2021/06/30 00:26:52;;;;;;;8.60;4.88;;;16.00;99.90;;;;;;5088683;28;20204;-71
2021/06/30 00:29:19;;;;;;;5.00;4.50;;;15.90;99.90;;;;;;5076675;28;20197;-71
2021/06/30 00:31:47;;;;;;;5.45;4.68;;;16.00;99.90;;;;;;5068529;28;20205;-71
2021/06/30 00:34:14;;;;;;;4.55;4.25;;;15.90;99.90;;;;;;5068603;28;20205;-71
2021/06/30 00:36:44;;;;;;;5.78;4.50;;;15.90;99.90;;;;;;5067665;28;20296;-71
2021/06/30 00:39:11;;;;;;;4.63;4.32;;;15.90;99.90;;;;;;5068766;28;20205;-71
2021/06/30 00:41:39;;;;;;;4.70;4.20;;;15.90;99.90;;;;;;5068628;28;20208;-71
2021/06/30 00:44:06;;;;;;;4.55;4.25;;;16.00;99.90;;;;;;5068609;28;20291;-71
2021/06/30 00:46:35;;;;;;;4.43;4.13;;;16.10;99.90;;;;;;5067109;28;20205;-71
2021/06/30 00:49:06;;;;;;;3.70;3.40;;;16.10;99.90;;;;;;5068654;28;20193;-71
2021/06/30 00:51:33;;;;;;;5.00;3.63;;;16.10;99.90;;;;;;5068586;28;20304;-71
2021/06/30 00:54:00;;;;;;;3.83;3.60;;;16.00;99.90;;;;;;5068673;28;20204;-71
2021/06/30 00:56:28;;;;;;;3.47;3.17;;;16.10;99.90;;;;;;5067054;28;20212;-71
2021/06/30 00:59:01;;;;;;;6.28;3.20;;;16.10;99.90;;;;;;5067974;28;20326;-71
2021/06/30 01:01:28;;;;;;;3.33;3.13;;;16.10;99.90;;;;;;5067697;28;20243;-71
2021/06/30 01:03:55;;;;;;;2.80;2.60;;;16.10;99.90;;;;;;5068188;28;20201;-71
2021/06/30 01:06:24;;;;;;;3.00;2.80;;;16.00;99.90;;;;;;5067030;28;20709;-71
2021/06/30 01:08:51;;;;;;;3.10;2.90;;;16.00;99.90;;;;;;5073605;28;20216;-71
2021/06/30 01:11:18;;;;;;;2.75;2.55;;;16.00;99.90;;;;;;5078660;28;20228;-71
2021/06/30 01:13:44;;;;;;;2.88;2.55;;;16.00;99.90;;;;;;5067202;28;20205;-71
2021/06/30 01:16:11;;;;;;;3.40;2.85;;;16.00;99.90;;;;;;5066780;28;20240;-71
2021/06/30 01:18:38;;;;;;;3.70;2.33;;;16.00;99.90;;;;;;5067522;28;20708;-71
2021/06/30 01:21:09;;;;;;;3.20;2.72;;;15.90;99.90;;;;;;5067228;28;20264;-71
2021/06/30 01:23:37;;;;;;;2.80;2.60;;;16.00;99.90;;;;;;5067466;28;20211;-71
2021/06/30 01:26:04;;;;;;;2.75;2.65;;;15.90;99.90;;;;;;5066791;28;20792;-71
2021/06/30 01:28:31;;;;;;;2.90;2.70;;;15.90;99.90;;;;;;5083594;28;20257;-71
2021/06/30 01:30:59;;;;;;;3.33;2.45;;;16.00;99.90;;;;;;5087369;28;20216;-71
2021/06/30 01:33:26;;;;;;;4.78;2.67;;;16.00;99.90;;;;;;5087465;28;20207;-71
2021/06/30 01:35:53;;;;;;;2.60;2.47;;;15.90;99.90;;;;;;5086647;28;20303;-71
2021/06/30 01:38:25;;;;;;;2.55;2.40;;;16.00;99.90;;;;;;5072067;28;20216;-71
2021/06/30 01:40:55;;;;;;;2.35;2.25;;;16.00;99.90;;;;;;5066721;28;20243;-71
2021/06/30 01:43:23;;;;;;;2.05;1.85;;;16.00;99.90;;;;;;5067312;28;20200;-70
2021/06/30 01:45:51;;;;;;;4.53;2.20;;;15.90;99.90;;;;;;5066254;28;20203;-71
2021/06/30 01:48:19;;;;;;;2.72;2.38;;;15.80;99.90;;;;;;5081361;28;20197;-71
2021/06/30 01:50:48;;;;;;;2.03;1.92;;;15.80;99.90;;;;;;5081505;28;20290;-71
2021/06/30 01:53:15;;;;;;;2.10;2.00;;;15.70;99.90;;;;;;5067023;28;20207;-71
2021/06/30 01:55:41;;;;;;;7.30;1.63;;;15.70;99.90;;;;;;5066198;28;20215;-71
2021/06/30 01:58:10;;;;;;;2.15;2.05;;;15.70;99.90;;;;;;5066065;28;20233;-71
2021/06/30 02:00:36;;;;;;;1.55;1.50;;;15.60;99.90;;;;;;5066655;28;20263;-71
2021/06/30 02:03:04;;;;;;;1.77;1.67;;;15.50;99.90;;;;;;5066617;28;20541;-70
2021/06/30 02:05:31;;;;;;;3.13;1.70;;;15.40;99.90;;;;;;5066276;28;20290;-71
2021/06/30 02:08:00;;;;;;;3.80;1.70;;;15.30;99.90;;;;;;5066059;28;20717;-71
2021/06/30 02:10:28;;;;;;;2.00;1.90;;;15.20;99.90;;;;;;5066650;28;20248;-71
2021/06/30 02:12:56;;;;;;;1.35;1.35;;;15.20;99.90;;;;;;5066343;28;20676;-70
2021/06/30 02:15:26;;;;;;;1.30;1.30;;;15.10;99.90;;;;;;5065753;28;20575;-71
2021/06/30 02:17:54;;;;;;;1.60;1.50;;;15.00;99.90;;;;;;5066599;28;20299;-70
2021/06/30 02:20:21;;;;;;;1.85;1.75;;;15.00;99.90;;;;;;5066770;28;20654;-70
2021/06/30 02:22:49;;;;;;;1.77;1.70;;;15.00;99.90;;;;;;5066128;28;20212;-70
2021/06/30 02:25:18;;;;;;;1.80;1.70;;;15.00;99.90;;;;;;5081784;28;20206;-71
2021/06/30 02:27:46;;;;;;;1.60;1.50;;;14.90;99.90;;;;;;5086777;28;20329;-71
2021/06/30 02:30:15;;;;;;;1.85;1.75;;;14.90;99.90;;;;;;5086639;28;20257;-70
2021/06/30 02:32:45;;;;;;;1.60;1.50;;;14.90;99.90;;;;;;5072601;28;20240;-71
2021/06/30 02:35:14;;;;;;;1.83;1.73;;;14.90;99.90;;;;;;5065842;28;20291;-70
2021/06/30 02:37:42;;;;;;;1.80;1.70;;;14.90;99.90;;;;;;5075993;22;20328;-71
2021/06/30 02:40:11;;;;;;;2.05;1.95;;;14.80;99.90;;;;;;5072438;28;20229;-71
2021/06/30 02:42:39;;;;;;;2.63;2.42;;;14.90;99.90;;;;;;5066199;28;20292;-71
2021/06/30 02:45:08;;;;;;;1.80;1.70;;;14.80;99.90;;;;;;5080179;28;20724;-70
2021/06/30 02:47:35;;;;;;;1.58;1.58;;;14.90;99.90;;;;;;5086757;28;20192;-70
2021/06/30 02:50:04;;;;;;;1.88;1.77;;;14.80;99.90;;;;;;5053715;28;20300;-71
2021/06/30 02:52:30;;;;;;;1.88;1.45;;;14.80;99.90;;;;;;5046449;28;20299;-71
2021/06/30 02:54:57;;;;;;;2.38;1.73;;;14.70;99.90;;;;;;5058635;28;20201;-70
2021/06/30 02:57:24;;;;;;;2.05;1.95;;;14.70;99.90;;;;;;5066167;28;20677;-70
2021/06/30 02:59:51;;;;;;;1.05;1.05;;;14.70;99.90;;;;;;5065991;28;20320;-70
2021/06/30 03:02:18;;;;;;;1.50;1.40;;;14.70;99.90;;;;;;5061316;28;20219;-71
2021/06/30 03:04:45;;;;;;;1.20;1.20;;;14.60;99.90;;;;;;5061078;28;20236;-71
2021/06/30 03:07:13;;;;;;;1.45;1.35;;;14.60;99.90;;;;;;5049204;28;20317;-70
2021/06/30 03:09:39;;;;;;;1.10;1.10;;;14.60;99.90;;;;;;5047490;28;20284;-71
2021/06/30 03:12:07;;;;;;;4.22;1.25;;;14.60;99.90;;;;;;5050097;28;20233;-71
2021/06/30 03:14:34;;;;;;;2.28;1.17;;;14.60;99.90;;;;;;5068976;28;20251;-71
2021/06/30 03:17:01;;;;;;;1.10;1.10;;;14.60;99.90;;;;;;5090067;28;20200;-71
2021/06/30 03:19:28;;;;;;;0.90;0.90;;;14.60;99.90;;;;;;5089018;28;20232;-71
2021/06/30 03:21:55;;;;;;;0.90;0.90;;;14.60;99.90;;;;;;5090223;28;20238;-71
2021/06/30 03:24:23;;;;;;;1.38;1.10;;;14.60;99.90;;;;;;5060186;28;20208;-71
2021/06/30 03:26:50;;;;;;;1.70;1.30;;;14.60;99.90;;;;;;5068699;28;20211;-71
2021/06/30 03:29:17;;;;;;;1.05;1.05;;;14.50;99.90;;;;;;5069628;28;20303;-71
2021/06/30 03:31:44;;;;;;;1.30;1.08;;;14.50;99.90;;;;;;5069857;28;20292;-71
2021/06/30 03:34:11;;;;;;;0.90;0.90;;;14.40;99.90;;;;;;5069526;28;20622;-71
2021/06/30 03:36:38;;;;;;;1.20;1.20;;;14.50;99.90;;;;;;5069031;28;20626;-71
2021/06/30 03:39:05;;;;;;;0.80;0.80;;;14.50;99.90;;;;;;5068670;28;20246;-71
2021/06/30 03:41:33;;;;;;;1.15;1.15;;;14.50;99.90;;;;;;5049786;28;20280;-70
2021/06/30 03:44:00;;;;;;;1.60;1.50;;;14.50;99.90;;;;;;5054923;28;20225;-71
2021/06/30 03:46:27;;;;;;;2.35;1.30;;;14.50;99.90;;;;;;5084363;28;20207;-70
2021/06/30 03:48:54;;;;;;;0.85;0.85;;;14.50;99.90;;;;;;5089342;28;20612;-71
2021/06/30 03:51:20;;;;;;;1.52;1.13;;;14.50;99.90;;;;;;5089731;28;20299;-71
2021/06/30 03:53:47;;;;;;;1.40;1.30;;;14.40;99.90;;;;;;5086162;28;20292;-70
2021/06/30 03:56:14;;;;;;;1.33;1.27;;;14.40;99.90;;;;;;5067045;28;20197;-70
2021/06/30 03:58:42;;;;;;;4.95;1.00;;;14.40;99.90;;;;;;5049828;28;20198;-71
2021/06/30 04:01:09;;;;;;;1.48;0.95;;;14.40;99.90;;;;;;5049386;28;20338;-71
2021/06/30 04:03:36;;;;;;;1.40;1.35;;;14.40;99.90;;;;;;5050443;28;20237;-70
2021/06/30 04:06:03;;;;;;;1.50;1.10;;;14.40;99.90;;;;;;5068118;28;20258;-71
2021/06/30 04:08:30;;;;;;;1.00;1.00;;;14.40;99.90;;;;;;5069055;28;20225;-71
2021/06/30 04:10:57;;;;;;;1.77;1.67;;;14.40;99.90;;;;;;5069058;28;20193;-71
2021/06/30 04:13:23;;;;;;;1.92;1.33;;;14.30;99.90;;;;;;5066403;28;20556;-71
2021/06/30 04:15:52;;;;;;;1.52;1.33;;;14.30;99.90;;;;;;5068422;28;20197;-71
2021/06/30 04:18:18;;;;;;;1.45;1.45;;;14.40;99.90;;;;;;5069085;28;20795;-70
2021/06/30 04:20:47;;;;;;;1.70;1.33;;;14.40;99.90;;;;;;5068568;28;20256;-71
2021/06/30 04:23:14;;;;;;;1.77;1.20;;;14.30;99.90;;;;;;5068364;28;20216;-71
2021/06/30 04:25:41;;;;;;;1.45;1.40;;;14.40;99.90;;;;;;5076075;28;21075;-71
2021/06/30 04:28:08;;;;;;;1.92;1.83;;;14.60;99.90;;;;;;5068947;28;20212;-71
2021/06/30 04:30:35;;;;;;;1.80;1.70;;;14.60;99.90;;;;;;5065578;28;20206;-71
2021/06/30 04:33:03;;;;;;;2.05;1.60;;;14.70;99.90;;;;;;5061494;28;20236;-71
2021/06/30 04:35:30;;;;;;;1.40;1.40;;;14.60;99.90;;;;;;5081681;28;20200;-71
2021/06/30 04:37:57;;;;;;;1.40;1.30;;;14.70;99.90;;;;;;5088572;28;20315;-71
2021/06/30 04:40:24;;;;;;;1.42;1.33;;;14.70;99.90;;;;;;5088393;28;20215;-71
2021/06/30 04:42:51;;;;;;;1.48;1.48;;;14.90;99.90;;;;;;5089054;28;20641;-71
2021/06/30 04:45:18;;;;;;;1.50;1.40;;;15.00;99.90;;;;;;5086019;28;20211;-71
2021/06/30 04:47:45;;;;;;;1.20;1.20;;;15.00;99.90;;;;;;5077650;28;20213;-71
2021/06/30 04:50:14;;;;;;;1.20;1.20;;;15.10;99.90;;;;;;5067872;28;20201;-71
2021/06/30 04:52:41;;;;;;;1.05;1.05;;;15.10;99.90;;;;;;5068487;28;20200;-71
2021/06/30 04:55:09;;;;;;;1.02;1.02;;;15.10;99.90;;;;;;5078073;28;20200;-71
2021/06/30 04:57:37;;;;;;;2.92;0.98;;;15.20;99.90;;;;;;5088177;28;20204;-71
2021/06/30 05:00:06;;;;;;;1.33;1.30;;;15.40;99.90;;;;;;5086183;28;20291;-71
2021/06/30 05:02:33;;;;;;;1.00;1.00;;;15.60;99.90;;;;;;5088024;28;20328;-71
2021/06/30 05:05:00;;;;;;;0.80;0.80;;;15.70;99.90;;;;;;5072170;28;20581;-71
2021/06/30 05:07:28;;;;;;;1.20;1.00;;;15.80;99.90;;;;;;5047993;28;20664;-71
2021/06/30 05:09:55;;;;;;;1.67;1.20;;;15.90;99.90;;;;;;5047743;28;20225;-71
2021/06/30 05:12:22;;;;;;;1.20;1.13;;;16.00;99.90;;;;;;5065917;28;20201;-71
2021/06/30 05:14:49;;;;;;;0.98;0.98;;;16.10;99.90;;;;;;5067253;28;20906;-71
2021/06/30 05:17:18;;;;;;;2.05;1.30;;;16.10;99.90;;;;;;5067721;28;20303;-71
2021/06/30 05:19:45;;;;;;;2.65;0.95;;;16.30;99.90;;;;;;5067315;28;20207;-71
2021/06/30 05:22:12;;;;;;;1.05;1.05;;;16.30;99.90;;;;;;5063695;28;20225;-71
2021/06/30 05:24:40;;;;;;;1.00;1.00;;;16.40;99.90;;;;;;5046483;28;20879;-71
2021/06/30 05:27:07;;;;;;;0.95;0.82;;;16.40;99.90;;;;;;5075898;28;20200;-71
2021/06/30 05:29:34;;;;;;;1.85;1.10;;;16.60;99.90;;;;;;5087622;28;20200;-71
2021/06/30 05:32:01;;;;;;;0.82;0.73;;;16.60;99.90;;;;;;5073309;28;20201;-71
2021/06/30 05:34:28;;;;;;;0.93;0.93;;;16.80;99.90;;;;;;5065711;28;20213;-71
2021/06/30 05:36:56;;;;;;;1.67;1.08;;;16.90;99.90;;;;;;5066266;28;20205;-71
2021/06/30 05:39:23;;;;;;;1.00;1.00;;;17.00;99.90;;;;;;5057033;28;20241;-70
2021/06/30 05:41:51;;;;;;;4.30;0.98;;;17.00;99.90;;;;;;5059598;28;20229;-70
2021/06/30 05:44:18;;;;;;;0.70;0.70;;;17.00;99.90;;;;;;5067441;28;20212;-70
2021/06/30 05:46:45;;;;;;;2.45;1.00;;;17.00;99.90;;;;;;5065993;28;20299;-70
2021/06/30 05:49:13;;;;;;;0.75;0.75;;;17.10;99.90;;;;;;5067011;28;20659;-70
2021/06/30 05:51:41;;;;;;;0.90;0.90;;;17.30;99.90;;;;;;5067001;28;20232;-70
2021/06/30 05:54:08;;;;;;;0.80;0.80;;;17.60;99.90;;;;;;5067521;28;20607;-70
2021/06/30 05:56:35;;;;;;;1.63;0.80;;;17.80;99.90;;;;;;5054450;28;20220;-69
2021/06/30 05:59:04;;;;;;;0.68;0.68;;;17.90;99.90;;;;;;5049752;28;20203;-69
2021/06/30 06:01:31;;;;;;;0.75;0.75;;;18.10;99.90;;;;;;5066809;28;20857;-69
2021/06/30 06:04:00;;;;;;;1.20;0.90;;;18.10;99.90;;;;;;5066726;28;20297;-69
2021/06/30 06:06:28;;;;;;;0.70;0.70;;;17.90;99.90;;;;;;5077920;28;20296;-69
2021/06/30 06:08:55;;;;;;;0.70;0.70;;;17.60;99.90;;;;;;5084544;28;20196;-70
2021/06/30 06:11:22;;;;;;;1.02;0.88;;;17.60;99.90;;;;;;5085326;28;20308;-69
2021/06/30 06:13:48;;;;;;;1.08;0.90;;;17.40;99.90;;;;;;5057970;28;20578;-69
2021/06/30 06:16:20;;;;;;;0.75;0.75;;;17.30;99.90;;;;;;5045623;28;20204;-70
2021/06/30 06:18:48;;;;;;;0.80;0.80;;;17.60;99.90;;;;;;5046635;28;20209;-70
2021/06/30 06:21:16;;;;;;;0.70;0.70;;;18.30;99.90;;;;;;5062927;28;20224;-69
2021/06/30 06:23:43;;;;;;;0.70;0.70;;;18.50;99.90;;;;;;5058374;28;20743;-69
2021/06/30 06:26:12;;;;;;;0.97;0.50;;;19.60;99.90;;;;;;5061049;28;20630;-70
2021/06/30 06:28:39;;;;;;;0.83;0.83;;;20.40;99.00;;;;;;5061928;28;20720;-69
2021/06/30 06:31:12;;;;;;;1.07;0.80;;;20.00;97.80;;;;;;5051203;28;21346;-70
2021/06/30 06:33:41;;;;;;;0.60;0.50;;;19.70;98.50;;;;;;5065022;28;20663;-69
2021/06/30 06:39:05;;;;;;;1.23;1.00;;;18.90;99.90;;;;;;5081225;28;20729;-68
2021/06/30 06:41:32;;;;;;;0.93;0.70;;;18.90;99.90;;;;;;5080158;28;20653;-68
2021/06/30 06:43:59;;;;;;;0.50;0.50;;;18.80;99.90;;;;;;5081589;28;20721;-68
2021/06/30 06:46:26;;;;;;;0.40;0.40;;;19.00;99.90;;;;;;5076093;28;20625;-68
2021/06/30 06:48:55;;;;;;;0.93;0.80;;;19.10;99.90;;;;;;5075124;28;21060;-68
2021/06/30 06:51:22;;;;;;;0.97;0.80;;;19.20;99.90;;;;;;5073515;28;20667;-68
2021/06/30 06:53:49;;;;;;;0.50;0.50;;;19.10;99.90;;;;;;5073625;28;20638;-68
2021/06/30 06:56:25;;;;;;;0.70;0.70;;;19.10;99.90;;;;;;5074018;28;20717;-68
2021/06/30 06:58:51;;;;;;;0.50;0.50;;;19.30;99.90;;;;;;5073096;28;20757;-68
2021/06/30 07:01:18;;;;;;;4.87;0.70;;;19.40;99.90;;;;;;5073844;28;21285;-68
2021/06/30 07:03:45;;;;;;;0.83;0.53;;;19.30;99.90;;;;;;5075360;28;20631;-68
2021/06/30 07:06:12;;;;;;;1.67;0.53;;;19.70;99.90;;;;;;5063596;28;21072;-68
2021/06/30 07:08:39;;;;;;;1.43;0.60;;;20.00;99.90;;;;;;5072798;28;20631;-68
2021/06/30 07:11:08;;;;;;;1.17;0.97;;;20.30;98.50;;;;;;5072449;28;20648;-68
2021/06/30 07:13:37;;;;;;;0.77;0.77;;;20.60;98.00;;;;;;5068883;28;20634;-68
2021/06/30 07:16:09;;;;;;;0.70;0.70;;;21.80;97.10;;;;;;5067530;28;20736;-68
2021/06/30 07:18:37;;;;;;;0.40;0.40;;;23.80;94.50;;;;;;5076032;28;21639;-68
2021/06/30 07:21:05;;;;;;;0.60;0.50;;;24.90;91.80;;;;;;5066869;28;20748;-68
2021/06/30 07:23:33;;;;;;;0.50;0.50;;;25.20;90.30;;;;;;5062203;28;20646;-68
2021/06/30 07:26:03;;;;;;;1.03;0.57;;;25.10;89.20;;;;;;5069344;28;20712;-69
2021/06/30 07:28:30;;;;;;;1.20;0.60;;;24.90;90.50;;;;;;5077996;28;20632;-68
2021/06/30 07:30:58;;;;;;;1.17;0.50;;;24.60;89.60;;;;;;5068772;28;21196;-69
2021/06/30 07:33:25;;;;;;;0.63;0.63;;;24.40;88.30;;;;;;5071263;28;20924;-68
2021/06/30 07:35:52;;;;;;;0.63;0.63;;;23.90;88.70;;;;;;5082058;28;21102;-69
2021/06/30 07:38:21;;;;;;;0.50;0.50;;;23.40;90.30;;;;;;5067409;28;20687;-68
2021/06/30 07:40:48;;;;;;;0.47;0.47;;;22.90;90.90;;;;;;5068608;28;20689;-68
2021/06/30 07:43:15;;;;;;;0.50;0.50;;;22.40;91.60;;;;;;5071676;28;20635;-68
2021/06/30 07:45:41;;;;;;;0.47;0.47;;;22.30;91.40;;;;;;5068316;28;20626;-69
2021/06/30 07:48:10;;;;;;;0.50;0.50;;;22.00;91.90;;;;;;5067307;28;20651;-68
2021/06/30 07:50:37;;;;;;;1.10;0.40;;;21.80;91.70;;;;;;5053354;28;20715;-68
2021/06/30 07:53:04;;;;;;;0.50;0.50;;;21.70;93.00;;;;;;5053550;28;20674;-68
2021/06/30 07:55:34;;;;;;;0.40;0.40;;;22.00;92.60;;;;;;5051264;28;20687;-69
2021/06/30 07:58:00;;;;;;;0.50;0.50;;;22.40;91.50;;;;;;5066447;28;20710;-69
2021/06/30 08:00:27;;;;;;;0.60;0.60;;;22.60;91.60;;;;;;5054432;28;20734;-69
2021/06/30 08:02:54;;;;;;;0.50;0.50;;;22.50;91.10;;;;;;5063338;28;20821;-68
2021/06/30 08:05:32;;;;;;;0.40;0.40;;;22.30;91.60;;;;;;5057485;28;20727;-69
2021/06/30 08:07:58;;;;;;;0.40;0.40;;;22.00;92.60;;;;;;5056816;28;20731;-68
2021/06/30 08:10:26;;;;;;;1.47;0.50;;;21.80;91.90;;;;;;5059617;28;20738;-68
2021/06/30 08:12:52;;;;;;;0.50;0.50;;;21.70;91.60;;;;;;5059897;28;20886;-68
2021/06/30 08:15:19;;;;;;;0.47;0.47;;;21.40;91.50;;;;;;5053617;28;20631;-71
2021/06/30 08:17:49;;;;;;;1.00;0.40;;;21.30;92.10;;;;;;5066898;28;20768;-72
2021/06/30 08:20:16;;;;;;;0.47;0.47;;;21.30;91.50;;;;;;5054187;28;20631;-71
2021/06/30 08:22:45;;;;;;;0.40;0.40;;;21.10;91.90;;;;;;5058082;28;20722;-70
2021/06/30 08:25:12;;;;;;;0.50;0.40;;;20.70;92.50;;;;;;5060428;28;20730;-69
2021/06/30 08:27:39;;;;;;;0.77;0.50;;;20.70;93.10;;;;;;5050671;28;20635;-69
2021/06/30 08:30:09;;;;;;;0.30;0.20;;;20.80;93.50;;;;;;5056099;28;21412;-69
2021/06/30 08:32:36;;;;;;;0.30;0.30;;;20.90;92.60;;;;;;5062146;28;20731;-70
2021/06/30 08:35:04;;;;;;;0.30;0.30;;;21.10;92.70;;;;;;5064339;28;20627;-70
2021/06/30 08:37:33;;;;;;;0.30;0.30;;;21.40;92.60;;;;;;5055630;23;20903;-67
2021/06/30 08:40:02;;;;;;;0.30;0.30;;;21.40;91.80;;;;;;5017448;22;20685;-70
2021/06/30 08:42:30;;;;;;;1.43;0.77;;;21.40;92.60;;;;;;5008001;28;20631;-69
2021/06/30 08:44:57;;;;;;;0.50;0.40;;;21.20;92.60;;;;;;5007478;28;20638;-68
2021/06/30 08:47:26;;;;;;;0.80;0.30;;;21.10;93.10;;;;;;5007507;28;20693;-68
2021/06/30 08:49:53;;;;;;;0.40;0.40;;;21.00;92.80;;;;;;4999396;28;20638;-68
2021/06/30 08:52:21;;;;;;;0.60;0.37;;;20.90;92.50;;;;;;4993961;28;20630;-68
2021/06/30 08:54:50;;;;;;;0.67;0.53;;;20.50;92.60;;;;;;5006505;28;20642;-69
2021/06/30 08:57:19;;;;;;;0.40;0.40;;;20.50;94.50;;;;;;5008418;28;20638;-68
2021/06/30 08:59:46;;;;;;;0.83;0.70;;;20.60;95.20;;;;;;5015258;28;20658;-68
2021/06/30 09:02:13;;;;;;;1.17;0.43;;;21.00;94.00;;;;;;5007293;28;20642;-68
2021/06/30 09:04:42;;;;;;;1.67;0.80;;;21.70;92.60;;;;;;5007342;28;21087;-68
2021/06/30 09:07:09;;;;;;;0.47;0.47;;;22.40;91.50;;;;;;5007806;28;21000;-68
2021/06/30 09:09:42;;;;;;;0.73;0.50;;;22.70;91.00;;;;;;5008225;28;21010;-68
2021/06/30 09:12:12;;;;;;;0.60;0.60;;;22.20;91.30;;;;;;5006263;28;20641;-69
2021/06/30 09:14:41;;;;;;;0.40;0.40;;;21.90;92.00;;;;;;4995932;28;21000;-68
2021/06/30 09:17:17;;;;;;;0.40;0.40;;;22.80;92.00;;;;;;5007685;28;20634;-68
2021/06/30 09:20:04;;;;;;;0.57;0.57;;;23.80;87.80;;;;;;5005586;28;20665;-68
2021/06/30 09:22:46;;;;;;;0.63;0.50;;;23.60;87.80;;;;;;5005953;28;20634;-70
2021/06/30 09:25:26;;;;;;;0.90;0.70;;;22.80;88.40;;;;;;5003595;28;20983;-68
2021/06/30 09:27:54;;;;;;;0.80;0.80;;;21.70;93.00;;;;;;5007811;28;20622;-68
2021/06/30 09:30:22;;;;;;;0.80;0.70;;;20.50;94.80;;;;;;5007030;28;20622;-68
2021/06/30 09:33:02;;;;;;;2.10;0.97;;;19.80;97.00;;;;;;5007115;28;20637;-68
2021/06/30 09:35:35;;;;;;;0.83;0.83;;;19.20;98.40;;;;;;5005298;28;20995;-67
2021/06/30 09:38:30;;;;;;;0.60;0.60;;;18.90;99.90;;;;;;5007005;28;20726;-68
2021/06/30 09:40:58;;;;;;;0.80;0.80;;;18.90;99.90;;;;;;5007011;28;20672;-68
2021/06/30 09:43:27;;;;;;;1.07;1.07;;;19.00;99.90;;;;;;5006294;28;20633;-67
2021/06/30 09:45:57;;;;;;;1.53;0.80;;;18.90;99.90;;;;;;5005844;28;20749;-69
2021/06/30 09:48:29;;;;;;;0.80;0.80;;;19.20;99.90;;;;;;5006979;28;20643;-67
2021/06/30 09:50:56;;;;;;;0.83;0.83;;;19.90;99.90;;;;;;5005568;28;20713;-68
2021/06/30 09:53:37;;;;;;;0.70;0.70;;;21.00;99.00;;;;;;5006501;28;20680;-69
2021/06/30 09:56:12;;;;;;;0.60;0.60;;;21.70;95.50;;;;;;4999295;28;20716;-68
2021/06/30 09:58:39;;;;;;;0.50;0.50;;;21.70;95.90;;;;;;5006989;28;20767;-70
2021/06/30 10:01:20;;;;;;;0.63;0.57;;;21.20;95.30;;;;;;5007076;28;20713;-70
2021/06/30 10:03:48;;;;;;;0.80;0.80;;;21.10;95.50;;;;;;5006123;28;20645;-67
2021/06/30 10:06:29;;;;;;;0.93;0.80;;;20.90;96.50;;;;;;5002709;28;21223;-69
2021/06/30 10:08:58;;;;;;;0.70;0.70;;;20.30;98.40;;;;;;5006551;28;20708;-69
2021/06/30 10:11:27;;;;;;;0.93;0.60;;;19.90;99.00;;;;;;5005281;28;20626;-68
2021/06/30 10:13:55;;;;;;;0.70;0.70;;;19.70;99.40;;;;;;5004976;28;20634;-68
2021/06/30 10:16:24;;;;;;;0.60;0.60;;;19.40;99.90;;;;;;5004336;28;20631;-68
2021/06/30 10:18:52;;;;;;;0.60;0.60;;;19.60;99.90;;;;;;5001059;28;20689;-68
2021/06/30 10:21:21;;;;;;;0.60;0.60;;;20.00;99.90;;;;;;5006112;28;20658;-68
2021/06/30 10:23:49;;;;;;;0.67;0.67;;;20.40;99.20;;;;;;5007207;28;20644;-68
2021/06/30 10:26:18;;;;;;;0.63;0.63;;;20.80;98.20;;;;;;5005180;28;20717;-68
2021/06/30 10:28:49;;;;;;;0.83;0.77;;;21.10;99.30;;;;;;5006187;28;20662;-68
2021/06/30 10:34:43;;;;;;;0.60;0.60;;;21.20;97.70;;;;;;4993522;28;22240;-68
2021/06/30 10:37:23;;;;;;;1.50;0.50;;;21.10;95.70;;;;;;5002743;28;21044;-68
2021/06/30 10:39:52;;;;;;;0.70;0.70;;;21.20;95.60;;;;;;4999244;28;20768;-68
2021/06/30 10:42:28;;;;;;;0.70;0.43;;;21.20;96.20;;;;;;5007229;28;20644;-68
2021/06/30 10:44:58;;;;;;;0.50;0.50;;;21.10;97.00;;;;;;5002733;28;20653;-69
2021/06/30 10:47:34;;;;;;;0.60;0.60;;;21.10;95.30;;;;;;5005439;28;20640;-68
2021/06/30 10:50:25;;;;;;;1.13;0.90;;;21.00;95.30;;;;;;5005564;28;20620;-69
2021/06/30 10:52:54;;;;;;;1.23;0.90;;;20.50;96.90;;;;;;5004133;28;20736;-69
2021/06/30 10:55:48;;;;;;;0.93;0.70;;;20.60;96.80;;;;;;5005343;28;20734;-69
2021/06/30 10:58:22;;;;;;;0.70;0.70;;;21.00;96.80;;;;;;4992337;28;20731;-68
2021/06/30 11:00:52;;;;;;;0.80;0.80;;;20.90;96.00;;;;;;5005957;28;20637;-68
2021/06/30 11:03:33;;;;;;;0.80;0.80;;;21.40;96.70;;;;;;5003010;28;20646;-68
2021/06/30 11:06:24;;;;;;;0.70;0.70;;;22.00;94.20;;;;;;5004769;28;20637;-68
2021/06/30 11:08:52;;;;;;;0.73;0.73;;;21.80;92.80;;;;;;5002177;28;21032;-68
2021/06/30 11:11:41;;;;;;;0.80;0.80;;;21.50;93.80;;;;;;5001590;28;20641;-68
2021/06/30 11:14:09;;;;;;;0.70;0.70;;;21.10;93.90;;;;;;5004954;28;20634;-68
2021/06/30 11:16:53;;;;;;;0.73;0.73;;;20.50;96.60;;;;;;5004332;28;20629;-68
2021/06/30 11:19:41;;;;;;;1.20;1.10;;;20.00;97.30;;;;;;5004382;28;21090;-68
2021/06/30 11:22:29;;;;;;;0.93;0.93;;;19.40;98.10;;;;;;5005737;28;21057;-68
2021/06/30 11:25:04;;;;;;;1.30;1.17;;;19.00;98.90;;;;;;5006216;28;20634;-68
2021/06/30 11:27:51;;;;;;;1.33;1.20;;;18.60;99.90;;;;;;5009391;28;21367;-68
2021/06/30 11:30:34;;;;;;;1.10;1.10;;;18.30;99.90;;;;;;4999500;28;20657;-68
2021/06/30 11:33:01;;;;;;;1.17;1.08;;;18.00;99.90;;;;;;5009472;28;20979;-68
2021/06/30 11:35:32;;;;;;;2.10;0.90;;;17.70;99.90;;;;;;5008939;28;20310;-69
2021/06/30 11:38:11;;;;;;;1.10;1.10;;;18.00;99.90;;;;;;5004337;28;20529;-68
2021/06/30 11:40:43;;;;;;;1.20;1.20;;;18.70;99.90;;;;;;5007600;28;20207;-68
2021/06/30 11:43:16;;;;;;;0.90;0.90;;;19.60;99.90;;;;;;5005889;28;21228;-68
2021/06/30 11:45:43;;;;;;;1.33;1.10;;;20.40;99.90;;;;;;5007837;28;21076;-69
2021/06/30 11:48:12;;;;;;;1.20;1.00;;;20.80;99.90;;;;;;5007639;28;21213;-69
2021/06/30 11:50:55;;;;;;;1.20;1.10;;;21.00;99.30;;;;;;5005299;28;20745;-70
2021/06/30 11:53:47;;;;;;;0.90;0.90;;;21.00;99.80;;;;;;4999114;28;20645;-69
2021/06/30 11:56:36;;;;;;;0.60;0.60;;;21.90;98.80;;;;;;5006556;28;20641;-68
2021/06/30 11:59:05;;;;;;;0.70;0.70;;;22.40;95.40;;;;;;5008700;28;20686;-68
2021/06/30 12:01:33;;;;;;;1.17;0.70;;;22.30;95.30;;;;;;5007703;28;20728;-68
2021/06/30 12:04:23;;;;;;;0.80;0.80;;;21.80;94.40;;;;;;5008314;28;20636;-68
2021/06/30 12:06:55;;;;;;;0.80;0.80;;;21.20;96.90;;;;;;5006228;28;21043;-69
2021/06/30 12:09:25;;;;;;;0.80;0.80;;;20.40;99.00;;;;;;5002024;28;21170;-68
2021/06/30 12:11:55;;;;;;;1.37;1.10;;;19.70;99.60;;;;;;5005849;28;20716;-69
2021/06/30 12:14:24;;;;;;;1.10;1.00;;;19.20;99.90;;;;;;5005047;28;20629;-68
2021/06/30 12:16:56;;;;;;;0.93;0.93;;;18.70;99.90;;;;;;5007604;28;20653;-68
2021/06/30 12:19:40;;;;;;;1.07;1.07;;;18.50;99.90;;;;;;5007767;28;20803;-69
2021/06/30 12:22:26;;;;;;;1.10;1.00;;;18.60;99.90;;;;;;5005080;28;20635;-68
2021/06/30 12:24:57;;;;;;;0.90;0.90;;;18.80;99.90;;;;;;5006179;28;20640;-68
2021/06/30 12:27:31;;;;;;;0.80;0.80;;;19.20;99.90;;;;;;5003665;28;20736;-68
2021/06/30 12:30:04;;;;;;;0.80;0.80;;;19.90;99.90;;;;;;5006312;28;20641;-69
2021/06/30 12:32:32;;;;;;;1.00;1.00;;;20.30;99.90;;;;;;5006710;28;20640;-68
2021/06/30 12:35:01;;;;;;;0.70;0.70;;;20.70;99.90;;;;;;5002147;28;20652;-69
2021/06/30 12:37:29;;;;;;;3.30;1.10;;;21.10;99.90;;;;;;5008623;28;20641;-69
2021/06/30 12:39:59;;;;;;;1.57;0.67;;;21.60;99.90;;;;;;5007709;28;20720;-70
2021/06/30 12:42:43;;;;;;;0.90;0.90;;;22.10;99.20;;;;;;5015083;28;20650;-68
2021/06/30 12:45:12;;;;;;;0.70;0.70;;;22.40;97.60;;;;;;5003323;28;21111;-68
2021/06/30 12:47:53;;;;;;;1.00;0.83;;;22.40;98.30;;;;;;5007447;28;20634;-68
2021/06/30 12:50:31;;;;;;;0.90;0.90;;;22.60;97.50;;;;;;5003099;28;20749;-68
2021/06/30 12:53:22;;;;;;;0.70;0.70;;;22.50;97.30;;;;;;5005582;28;20634;-68
2021/06/30 12:55:52;;;;;;;0.70;0.70;;;22.20;96.10;;;;;;5006190;28;20704;-68
2021/06/30 12:58:20;;;;;;;0.80;0.80;;;22.00;96.30;;;;;;5007462;28;20645;-69
2021/06/30 13:01:07;;;;;;;1.43;1.33;;;21.70;96.50;;;;;;5007484;28;20683;-68
2021/06/30 13:03:45;;;;;;;0.87;0.87;;;21.20;98.10;;;;;;5003003;28;21218;-68
2021/06/30 13:06:16;;;;;;;1.10;1.00;;;20.80;99.30;;;;;;5004860;28;21084;-69
2021/06/30 13:08:45;;;;;;;1.00;1.00;;;20.60;99.20;;;;;;5004287;28;21217;-68